Oscoda, Michigan
Current Conditions -  °F | °C
As of 12:53 AM on Sunday 23 Nov 2014 (Local Time) from KOSC Reporting Station
Moderate Fog Moderate Fog  
Wind Chill: 39°   Ceiling: 300
Heat Index: 39°   Visibility: 0.25mi
Dew Point: 39°   Wind: 0mph
Humidity: 100%   Direction: NA
Pressure: 29.87"   Gusts: NA
Location:  44.42°N, 83.33°W
Report Text: KOSC 230553Z AUTO 00000KT 1/4SM FG OVC003 03/03 A2987 RMK AO2 T00400040
Loading
Personal Weather Stations






























Interactive Weather Map New forecast layout! Learn more

10-Day Weather Forecast

Advertisements
Track Severe Weather on mobile